createdAt,value
2022-11-28T00:01:35.737Z,12.27
2022-11-28T00:04:03.667Z,11.45
2022-11-28T00:06:30.541Z,11.00
2022-11-28T00:08:59.546Z,11.98
2022-11-28T00:11:26.739Z,11.30
2022-11-28T00:13:55.059Z,10.73
2022-11-28T00:16:23.303Z,11.00
2022-11-28T00:18:52.751Z,10.70
2022-11-28T00:21:20.011Z,10.32
2022-11-28T00:23:48.684Z,10.43
2022-11-28T00:26:20.244Z,10.32
2022-11-28T00:28:48.004Z,11.52
2022-11-28T00:31:20.365Z,11.60
2022-11-28T00:33:47.989Z,11.18
2022-11-28T00:36:15.038Z,11.88
2022-11-28T00:38:42.053Z,11.38
2022-11-28T00:41:21.937Z,11.07
2022-11-28T00:43:50.213Z,10.80
2022-11-28T00:46:18.222Z,11.02
2022-11-28T00:48:46.375Z,11.23
2022-11-28T00:51:18.406Z,11.10
2022-11-28T00:53:48.177Z,11.25
2022-11-28T00:56:17.610Z,11.13
2022-11-28T00:58:45.559Z,10.93
2022-11-28T01:01:21.750Z,11.38
2022-11-28T01:03:55.367Z,10.98
2022-11-28T01:06:23.696Z,11.75
2022-11-28T01:08:51.720Z,11.30
2022-11-28T01:11:18.983Z,11.73
2022-11-28T01:13:46.268Z,10.60
2022-11-28T01:16:12.996Z,10.23
2022-11-28T01:18:40.391Z,11.13
2022-11-28T01:21:13.351Z,11.15
2022-11-28T01:23:40.656Z,9.95
2022-11-28T01:26:09.160Z,10.80
2022-11-28T01:28:36.283Z,10.52
2022-11-28T01:31:08.544Z,11.73
2022-11-28T01:33:35.482Z,10.37
2022-11-28T01:36:04.531Z,11.32
2022-11-28T01:38:32.005Z,10.50
2022-11-28T01:40:58.893Z,10.57
2022-11-28T01:43:26.090Z,10.23
2022-11-28T01:45:53.702Z,10.05
2022-11-28T01:48:35.888Z,11.15
2022-11-28T01:51:07.904Z,10.85
2022-11-28T01:53:38.374Z,10.02
2022-11-28T01:56:15.378Z,11.18
2022-11-28T01:58:47.629Z,10.63
2022-11-28T02:01:15.975Z,11.02
2022-11-28T02:03:48.449Z,11.82
2022-11-28T02:06:18.879Z,11.52
2022-11-28T02:08:46.222Z,10.80
2022-11-28T02:11:45.117Z,10.63
2022-11-28T02:14:40.723Z,11.43
2022-11-28T02:17:46.814Z,10.93
2022-11-28T02:20:42.754Z,11.98
2022-11-28T02:23:22.302Z,12.68
2022-11-28T02:26:11.369Z,12.35
2022-11-28T02:29:10.619Z,12.27
2022-11-28T02:32:22.122Z,11.77
2022-11-28T02:34:49.254Z,13.30
2022-11-28T02:37:27.520Z,12.60
2022-11-28T02:40:20.639Z,13.10
2022-11-28T02:43:35.238Z,13.68
2022-11-28T02:46:13.232Z,12.82
2022-11-28T02:48:49.531Z,13.50
2022-11-28T02:51:30.843Z,14.48
2022-11-28T02:53:59.708Z,15.00
2022-11-28T02:56:27.010Z,13.48
2022-11-28T02:58:53.756Z,14.95
2022-11-28T03:01:26.007Z,14.15
2022-11-28T03:04:07.838Z,14.93
2022-11-28T03:07:00.140Z,11.97
2022-11-28T03:09:51.015Z,14.68
2022-11-28T03:12:50.877Z,13.68
2022-11-28T03:15:22.517Z,13.85
2022-11-28T03:18:13.768Z,14.50
2022-11-28T03:20:58.052Z,14.40
2022-11-28T03:23:34.102Z,14.18
2022-11-28T03:26:25.021Z,14.85
2022-11-28T03:29:00.694Z,13.43
2022-11-28T03:31:36.828Z,15.25
2022-11-28T03:34:06.564Z,15.43
2022-11-28T03:36:41.233Z,14.77
2022-11-28T03:39:21.593Z,16.58
2022-11-28T03:41:57.347Z,15.85
2022-11-28T03:44:40.486Z,16.02
2022-11-28T03:47:10.227Z,16.05
2022-11-28T03:49:44.872Z,16.02
2022-11-28T03:52:29.502Z,16.75
2022-11-28T03:55:00.943Z,16.70
2022-11-28T03:57:42.654Z,16.60
2022-11-28T04:00:12.790Z,16.40
2022-11-28T04:02:45.555Z,16.33
2022-11-28T04:05:25.007Z,17.55
2022-11-28T04:07:58.474Z,17.50
2022-11-28T04:10:48.211Z,17.63
2022-11-28T04:13:26.495Z,17.40
2022-11-28T04:16:01.835Z,16.92
2022-11-28T04:18:40.263Z,17.38
2022-11-28T04:21:15.948Z,18.33
2022-11-28T04:23:45.688Z,17.08
2022-11-28T04:26:20.069Z,17.35
2022-11-28T04:28:49.690Z,17.90
2022-11-28T04:31:18.876Z,18.38
2022-11-28T04:33:51.482Z,19.35
2022-11-28T04:36:20.120Z,18.85
2022-11-28T04:38:56.351Z,18.25
2022-11-28T04:41:43.617Z,20.02
2022-11-28T04:44:15.118Z,19.83
2022-11-28T04:46:46.324Z,19.27
2022-11-28T04:49:13.690Z,19.85
2022-11-28T04:51:59.470Z,20.27
2022-11-28T04:54:40.178Z,20.05
2022-11-28T04:57:24.646Z,20.13
2022-11-28T04:59:52.246Z,20.45
2022-11-28T05:02:21.679Z,20.02
2022-11-28T05:04:48.268Z,19.90
2022-11-28T05:07:15.556Z,19.90
2022-11-28T05:09:42.312Z,20.10
2022-11-28T05:12:09.762Z,19.42
2022-11-28T05:14:36.430Z,19.48
2022-11-28T05:17:03.688Z,19.63
2022-11-28T05:19:30.347Z,20.95
2022-11-28T05:21:57.595Z,20.30
2022-11-28T05:24:29.240Z,20.92
2022-11-28T05:26:59.442Z,20.63
2022-11-28T05:29:26.030Z,21.13
2022-11-28T05:31:53.350Z,21.27
2022-11-28T05:34:19.975Z,21.58
2022-11-28T05:36:46.913Z,20.48
2022-11-28T05:39:14.148Z,22.08
2022-11-28T05:41:40.763Z,20.35
2022-11-28T05:44:08.035Z,20.75
2022-11-28T05:46:34.635Z,20.45
2022-11-28T05:49:01.987Z,20.98
2022-11-28T05:51:28.549Z,20.23
2022-11-28T05:53:56.155Z,20.35
2022-11-28T05:56:23.284Z,20.33
2022-11-28T05:58:52.153Z,19.92
2022-11-28T06:01:24.504Z,19.23
2022-11-28T06:03:58.417Z,20.15
2022-11-28T06:06:26.130Z,18.83
2022-11-28T06:08:53.382Z,19.95
2022-11-28T06:11:22.307Z,20.02
2022-11-28T06:13:50.130Z,19.38
2022-11-28T06:16:19.533Z,19.65
2022-11-28T06:18:47.331Z,18.42
2022-11-28T06:21:15.627Z,19.10
2022-11-28T06:23:43.195Z,19.50
2022-11-28T06:26:15.749Z,19.27
2022-11-28T06:31:12.078Z,18.00
2022-11-28T06:33:39.674Z,18.95
2022-11-28T06:36:06.880Z,18.10
2022-11-28T06:38:34.884Z,19.42
2022-11-28T06:41:04.712Z,18.27
2022-11-28T06:43:32.288Z,18.17
2022-11-28T06:45:59.311Z,18.67
2022-11-28T06:48:26.966Z,16.65
2022-11-28T06:50:53.962Z,18.70
2022-11-28T06:53:21.289Z,19.45
2022-11-28T06:55:47.859Z,18.33
2022-11-28T06:58:15.419Z,18.73
2022-11-28T07:00:42.084Z,17.70
2022-11-28T07:03:09.072Z,18.30
2022-11-28T07:05:35.653Z,18.33
2022-11-28T07:08:03.091Z,17.67
2022-11-28T07:10:29.983Z,18.05
2022-11-28T07:13:04.892Z,18.58
2022-11-28T07:15:32.092Z,19.63
2022-11-28T07:17:59.412Z,18.50
2022-11-28T07:20:26.016Z,18.98
2022-11-28T07:22:53.322Z,19.02
2022-11-28T07:25:19.898Z,19.33
2022-11-28T07:27:47.204Z,19.65
2022-11-28T07:30:14.482Z,18.67
2022-11-28T07:32:41.360Z,17.52
2022-11-28T07:35:09.156Z,18.00
2022-11-28T07:37:36.312Z,18.90
2022-11-28T07:40:04.598Z,18.38
2022-11-28T07:42:31.253Z,18.92
2022-11-28T07:45:05.530Z,18.27
2022-11-28T07:47:32.133Z,17.90
2022-11-28T07:49:59.339Z,18.67
2022-11-28T07:52:25.924Z,18.58
2022-11-28T07:54:53.172Z,17.67
2022-11-28T07:57:19.732Z,18.10
2022-11-28T07:59:47.048Z,18.33
2022-11-28T08:02:13.705Z,17.42
2022-11-28T08:04:47.646Z,19.33
2022-11-28T08:07:16.509Z,17.85
2022-11-28T08:09:44.093Z,17.75
2022-11-28T08:12:11.007Z,19.08
2022-11-28T08:14:38.330Z,18.63
2022-11-28T08:17:04.975Z,17.52
2022-11-28T08:19:35.346Z,17.35
2022-11-28T08:22:02.393Z,17.73
2022-11-28T08:24:29.905Z,18.75
2022-11-28T08:26:57.041Z,17.67
2022-11-28T08:29:24.288Z,19.38
2022-11-28T08:31:50.885Z,19.90
2022-11-28T08:34:18.171Z,18.90
2022-11-28T08:36:44.800Z,21.33
2022-11-28T08:39:28.009Z,23.25
2022-11-28T08:44:30.175Z,20.55
2022-11-28T08:46:57.220Z,20.05
2022-11-28T08:49:24.484Z,20.23
2022-11-28T08:51:51.148Z,20.00
2022-11-28T08:54:18.469Z,21.35
2022-11-28T08:56:47.866Z,18.92
2022-11-28T08:59:15.114Z,20.38
2022-11-28T09:01:41.831Z,19.88
2022-11-28T09:04:09.233Z,21.17
2022-11-28T09:06:39.511Z,23.23
2022-11-28T09:09:06.354Z,20.50
2022-11-28T09:11:33.746Z,22.60
2022-11-28T09:14:00.395Z,22.98
2022-11-28T09:16:27.781Z,23.27
2022-11-28T09:18:57.283Z,21.88
2022-11-28T09:21:24.325Z,22.63
2022-11-28T09:23:54.643Z,20.00
2022-11-28T09:26:24.884Z,21.60
2022-11-28T09:28:54.538Z,23.48
2022-11-28T09:31:22.914Z,22.48
2022-11-28T09:33:49.617Z,21.98
2022-11-28T09:36:19.422Z,22.20
2022-11-28T09:38:47.254Z,22.77
2022-11-28T09:41:22.624Z,23.30
2022-11-28T09:43:54.682Z,22.52
2022-11-28T09:46:28.796Z,21.92
2022-11-28T09:49:00.436Z,22.48
2022-11-28T09:51:36.336Z,24.52
2022-11-28T09:54:28.733Z,22.27
2022-11-28T09:56:57.784Z,22.02
2022-11-28T09:59:29.911Z,22.73
2022-11-28T10:02:36.384Z,21.83
2022-11-28T10:05:30.096Z,23.30
2022-11-28T10:08:22.818Z,22.15
2022-11-28T10:11:01.056Z,21.83
2022-11-28T10:14:10.934Z,23.10
2022-11-28T10:17:04.067Z,23.23
2022-11-28T10:19:54.265Z,22.20
2022-11-28T10:22:31.005Z,24.30
2022-11-28T10:25:07.525Z,22.83
2022-11-28T10:27:36.254Z,24.30
2022-11-28T10:30:05.398Z,26.45
2022-11-28T10:32:36.462Z,25.85
2022-11-28T10:35:37.256Z,33.00
2022-11-28T10:38:13.669Z,32.10
2022-11-28T10:40:49.606Z,36.22
2022-11-28T10:43:29.234Z,58.05
2022-11-28T10:46:22.415Z,25.23
2022-11-28T10:49:09.724Z,24.10
2022-11-28T10:51:53.331Z,25.10
2022-11-28T10:54:46.748Z,25.35
2022-11-28T10:57:45.578Z,23.35
2022-11-28T11:00:15.126Z,24.13
2022-11-28T11:02:55.179Z,26.98
2022-11-28T11:05:27.723Z,24.70
2022-11-28T11:08:02.883Z,25.02
2022-11-28T11:10:45.239Z,23.55
2022-11-28T11:13:27.348Z,24.45
2022-11-28T11:16:12.043Z,24.95
2022-11-28T11:18:46.560Z,23.33
2022-11-28T11:21:25.112Z,23.55
2022-11-28T11:24:11.832Z,23.15
2022-11-28T11:26:43.472Z,23.70
2022-11-28T11:29:31.072Z,23.63
2022-11-28T11:32:03.398Z,23.73
2022-11-28T11:34:38.578Z,23.33
2022-11-28T11:37:36.284Z,23.00
2022-11-28T11:40:18.696Z,23.63
2022-11-28T11:42:56.613Z,23.65
2022-11-28T11:45:35.009Z,24.35
2022-11-28T11:48:03.961Z,32.10
2022-11-28T11:50:32.885Z,44.83
2022-11-28T11:53:01.553Z,29.48
2022-11-28T11:55:30.873Z,30.98
2022-11-28T11:58:05.451Z,32.28
2022-11-28T12:00:39.299Z,29.75
2022-11-28T12:03:24.687Z,28.17
2022-11-28T12:06:25.601Z,29.52
2022-11-28T12:08:55.063Z,28.20
2022-11-28T12:11:46.899Z,28.13
2022-11-28T12:14:36.164Z,27.27
2022-11-28T12:20:40.127Z,27.98
2022-11-28T12:23:40.519Z,30.08
2022-11-28T12:26:35.423Z,33.17
2022-11-28T12:29:42.088Z,30.35
2022-11-28T12:32:33.161Z,29.60
2022-11-28T12:35:25.162Z,29.20
2022-11-28T12:38:19.715Z,27.92
2022-11-28T12:41:04.336Z,28.67
2022-11-28T12:43:53.008Z,27.67
2022-11-28T12:46:40.676Z,27.80
2022-11-28T12:49:14.430Z,28.25
2022-11-28T12:51:53.588Z,26.33
2022-11-28T12:54:51.793Z,26.38
2022-11-28T12:57:36.386Z,25.67
2022-11-28T13:00:18.496Z,24.92
2022-11-28T13:02:56.492Z,24.20
2022-11-28T13:05:51.339Z,23.77
2022-11-28T13:08:46.504Z,23.88
2022-11-28T13:11:28.505Z,39.58
2022-11-28T13:14:18.321Z,31.63
2022-11-28T13:16:49.629Z,25.48
2022-11-28T13:19:47.660Z,24.52
2022-11-28T13:22:33.570Z,24.48
2022-11-28T13:25:20.054Z,24.65
2022-11-28T13:28:07.633Z,24.25
2022-11-28T13:30:42.474Z,24.75
2022-11-28T13:33:32.303Z,23.92
2022-11-28T13:36:00.100Z,24.40
2022-11-28T13:38:54.451Z,23.90
2022-11-28T13:42:13.951Z,24.75
2022-11-28T13:45:25.142Z,24.13
2022-11-28T13:47:55.739Z,28.40
2022-11-28T13:50:25.510Z,29.45
2022-11-28T13:53:07.493Z,33.28
2022-11-28T13:55:48.795Z,24.33
2022-11-28T13:58:19.394Z,26.83
2022-11-28T14:01:12.376Z,26.50
2022-11-28T14:03:48.000Z,28.55
2022-11-28T14:06:44.701Z,28.83
2022-11-28T14:09:11.932Z,30.25
2022-11-28T14:11:53.391Z,30.67
2022-11-28T14:14:33.677Z,32.13
2022-11-28T14:17:01.077Z,27.23
2022-11-28T14:19:55.040Z,27.30
2022-11-28T14:22:38.958Z,26.67
2022-11-28T14:25:18.736Z,26.58
2022-11-28T14:27:56.998Z,27.55
2022-11-28T14:30:40.224Z,27.42
2022-11-28T14:33:21.696Z,28.15
2022-11-28T14:35:54.681Z,28.77
2022-11-28T14:38:31.681Z,30.73
2022-11-28T14:41:01.452Z,30.40
2022-11-28T14:43:32.143Z,29.38
2022-11-28T14:46:15.864Z,28.63
2022-11-28T14:49:03.204Z,21.70
2022-11-28T14:51:48.549Z,29.15
2022-11-28T14:54:29.514Z,27.90
2022-11-28T14:56:59.939Z,29.92
2022-11-28T14:59:31.570Z,30.08
2022-11-28T15:02:05.972Z,43.95
2022-11-28T15:04:53.639Z,38.05
2022-11-28T15:07:58.127Z,45.90
2022-11-28T15:10:51.087Z,40.42
2022-11-28T15:13:43.387Z,46.67
2022-11-28T15:16:13.119Z,40.17
2022-11-28T15:18:50.476Z,39.67
2022-11-28T15:21:18.911Z,36.63
2022-11-28T15:23:49.107Z,34.75
2022-11-28T15:26:22.631Z,33.53
2022-11-28T15:28:49.267Z,35.67
2022-11-28T15:31:22.495Z,35.83
2022-11-28T15:33:50.821Z,34.03
2022-11-28T15:36:28.040Z,37.45
2022-11-28T15:38:56.157Z,37.20
2022-11-28T15:41:27.740Z,40.72
2022-11-28T15:43:56.720Z,34.70
2022-11-28T15:46:34.086Z,35.72
2022-11-28T15:49:01.920Z,33.80
2022-11-28T15:51:35.366Z,33.35
2022-11-28T15:54:10.664Z,32.78
2022-11-28T15:56:57.129Z,35.55
2022-11-28T15:59:24.497Z,34.47
2022-11-28T16:01:58.954Z,35.08
2022-11-28T16:04:28.089Z,32.58
2022-11-28T16:06:58.417Z,32.20
2022-11-28T16:09:38.703Z,33.70
2022-11-28T16:12:12.305Z,33.95
2022-11-28T16:14:45.400Z,35.83
2022-11-28T16:19:46.770Z,32.42
2022-11-28T16:22:19.798Z,33.55
2022-11-28T16:24:49.625Z,33.00
2022-11-28T16:27:30.066Z,33.85
2022-11-28T16:29:57.767Z,36.30
2022-11-28T16:32:38.941Z,40.85
2022-11-28T16:35:12.536Z,53.20
2022-11-28T16:37:39.268Z,54.05
2022-11-28T16:40:15.182Z,59.42
2022-11-28T16:42:42.087Z,54.33
2022-11-28T16:45:31.185Z,45.17
2022-11-28T16:48:09.863Z,43.65
2022-11-28T16:50:37.873Z,39.53
2022-11-28T16:53:05.303Z,42.88
2022-11-28T16:55:32.654Z,39.72
2022-11-28T16:58:08.420Z,37.38
2022-11-28T17:00:36.345Z,36.22
2022-11-28T17:03:04.024Z,35.78
2022-11-28T17:05:31.351Z,36.95
2022-11-28T17:07:58.685Z,37.80
2022-11-28T17:10:25.724Z,37.15
2022-11-28T17:12:52.447Z,38.95
2022-11-28T17:15:22.038Z,36.00
2022-11-28T17:17:48.646Z,33.00
2022-11-28T17:20:17.800Z,34.88
2022-11-28T17:22:46.766Z,39.63
2022-11-28T17:25:21.089Z,38.90
2022-11-28T17:27:48.047Z,36.35
2022-11-28T17:30:19.852Z,36.00
2022-11-28T17:32:51.790Z,35.60
2022-11-28T17:35:24.812Z,34.67
2022-11-28T17:37:51.482Z,37.40
2022-11-28T17:40:33.521Z,36.08
2022-11-28T17:43:01.077Z,37.05
2022-11-28T17:45:30.022Z,41.40
2022-11-28T17:47:57.034Z,37.80
2022-11-28T17:50:24.354Z,38.00
2022-11-28T17:52:51.534Z,36.20
2022-11-28T17:55:20.802Z,37.25
2022-11-28T17:57:47.803Z,36.80
2022-11-28T18:00:15.589Z,37.75
2022-11-28T18:02:43.666Z,49.63
2022-11-28T18:05:10.352Z,46.53
2022-11-28T18:07:38.821Z,41.92
2022-11-28T18:10:06.482Z,40.83
2022-11-28T18:12:33.463Z,39.03
2022-11-28T18:15:01.182Z,38.75
2022-11-28T18:17:28.371Z,40.92
2022-11-28T18:19:59.028Z,40.55
2022-11-28T18:22:25.675Z,42.67
2022-11-28T18:24:53.156Z,40.08
2022-11-28T18:27:19.820Z,39.97
2022-11-28T18:29:46.832Z,40.30
2022-11-28T18:32:13.624Z,40.95
2022-11-28T18:34:40.731Z,41.05
2022-11-28T18:37:08.220Z,40.58
2022-11-28T18:39:34.971Z,40.45
2022-11-28T18:42:01.753Z,43.58
2022-11-28T18:44:28.736Z,41.20
2022-11-28T18:46:55.655Z,40.67
2022-11-28T18:49:22.729Z,39.80
2022-11-28T18:51:50.045Z,42.85
2022-11-28T18:54:21.621Z,41.08
2022-11-28T18:56:49.089Z,40.92
2022-11-28T18:59:16.733Z,38.80
2022-11-28T19:01:43.432Z,39.55
2022-11-28T19:04:12.533Z,39.60
2022-11-28T19:06:40.443Z,39.80
2022-11-28T19:09:13.809Z,38.33
2022-11-28T19:11:41.062Z,40.38
2022-11-28T19:14:08.934Z,40.70
2022-11-28T19:16:37.451Z,42.28
2022-11-28T19:19:06.181Z,41.25
2022-11-28T19:21:35.030Z,42.80
2022-11-28T19:24:03.554Z,42.85
2022-11-28T19:26:31.367Z,43.25
2022-11-28T19:29:00.960Z,43.15
2022-11-28T19:31:30.061Z,41.97
2022-11-28T19:34:18.287Z,44.67
2022-11-28T19:36:47.893Z,43.90
2022-11-28T19:39:18.191Z,43.05
2022-11-28T19:41:46.020Z,42.85
2022-11-28T19:44:14.399Z,42.70
2022-11-28T19:46:41.634Z,43.83
2022-11-28T19:49:15.567Z,42.70
2022-11-28T19:51:42.214Z,42.90
2022-11-28T19:54:09.549Z,44.08
2022-11-28T19:56:36.243Z,43.42
2022-11-28T19:59:03.305Z,42.63
2022-11-28T20:01:30.407Z,41.45
2022-11-28T20:03:58.937Z,42.45
2022-11-28T20:06:29.340Z,42.38
2022-11-28T20:09:00.297Z,41.20
2022-11-28T20:11:32.305Z,41.20
2022-11-28T20:14:06.643Z,42.03
2022-11-28T20:16:35.114Z,42.67
2022-11-28T20:19:02.787Z,41.15
2022-11-28T20:21:29.929Z,41.13
2022-11-28T20:24:04.777Z,40.13
2022-11-28T20:26:42.560Z,40.90
2022-11-28T20:29:13.705Z,41.47
2022-11-28T20:31:45.536Z,39.75
2022-11-28T20:34:16.571Z,40.55
2022-11-28T20:36:43.947Z,38.85
2022-11-28T20:39:12.253Z,39.92
2022-11-28T20:41:39.382Z,40.58
2022-11-28T20:44:06.694Z,38.53
2022-11-28T20:46:35.376Z,40.72
2022-11-28T20:49:05.442Z,40.00
2022-11-28T20:51:34.110Z,40.00
2022-11-28T20:54:02.069Z,38.03
2022-11-28T20:56:31.647Z,37.42
2022-11-28T20:59:00.485Z,36.97
2022-11-28T21:01:30.592Z,38.53
2022-11-28T21:03:57.701Z,37.75
2022-11-28T21:06:24.705Z,38.65
2022-11-28T21:08:52.221Z,37.17
2022-11-28T21:11:43.824Z,38.13
2022-11-28T21:14:08.802Z,37.60
2022-11-28T21:16:35.488Z,37.65
2022-11-28T21:19:06.430Z,38.03
2022-11-28T21:21:35.386Z,38.92
2022-11-28T21:24:11.306Z,37.50
2022-11-28T21:26:43.220Z,37.65
2022-11-28T21:29:12.437Z,38.78
2022-11-28T21:31:44.621Z,37.15
2022-11-28T21:34:16.295Z,38.35
2022-11-28T21:36:43.950Z,38.88
2022-11-28T21:39:13.658Z,38.90
2022-11-28T21:41:40.828Z,40.75
2022-11-28T21:44:08.700Z,40.03
2022-11-28T21:46:35.370Z,41.53
2022-11-28T21:49:02.924Z,40.47
2022-11-28T21:51:29.680Z,40.47
2022-11-28T21:53:59.867Z,40.30
2022-11-28T21:56:27.003Z,40.03
2022-11-28T21:58:54.694Z,39.88
2022-11-28T22:01:21.968Z,38.08
2022-11-28T22:03:49.515Z,40.92
2022-11-28T22:06:23.323Z,40.13
2022-11-28T22:08:51.320Z,40.28
2022-11-28T22:11:20.295Z,38.95
2022-11-28T22:13:49.778Z,38.53
2022-11-28T22:16:16.479Z,38.50
2022-11-28T22:18:44.622Z,37.50
2022-11-28T22:21:49.963Z,38.97
2022-11-28T22:23:59.597Z,37.75
2022-11-28T22:26:26.257Z,38.47
2022-11-28T22:28:54.131Z,39.70
2022-11-28T22:31:22.986Z,39.75
2022-11-28T22:33:51.098Z,40.97
2022-11-28T22:36:20.803Z,40.08
2022-11-28T22:38:49.509Z,41.20
2022-11-28T22:41:23.288Z,37.40
2022-11-28T22:43:56.383Z,41.35
2022-11-28T22:46:23.717Z,39.80
2022-11-28T22:48:52.155Z,41.13
2022-11-28T22:51:23.391Z,41.30
2022-11-28T22:53:58.099Z,40.67
2022-11-28T22:56:27.859Z,40.63
2022-11-28T22:58:54.865Z,42.22
2022-11-28T23:01:25.877Z,41.38
2022-11-28T23:03:53.827Z,40.30
2022-11-28T23:06:27.389Z,43.83
2022-11-28T23:08:56.133Z,41.58
2022-11-28T23:11:27.634Z,41.47
2022-11-28T23:13:55.213Z,39.53
2022-11-28T23:16:28.352Z,40.80
2022-11-28T23:21:25.473Z,41.13
2022-11-28T23:23:52.765Z,40.35
2022-11-28T23:26:21.889Z,42.15
2022-11-28T23:28:49.200Z,43.33
2022-11-28T23:31:22.744Z,42.10
2022-11-28T23:36:19.898Z,41.67
2022-11-28T23:38:48.737Z,41.10
2022-11-28T23:41:16.491Z,41.58
2022-11-28T23:43:43.097Z,44.22
2022-11-28T23:46:11.517Z,45.42
2022-11-28T23:48:39.364Z,47.15
2022-11-28T23:51:07.354Z,46.50
2022-11-28T23:53:35.428Z,46.40
2022-11-28T23:56:08.075Z,48.65
2022-11-28T23:58:35.232Z,50.47
